Strona główna
METAR-TAF:

METAR-TAF

Lotnisko :

Port lotniczy Santa Maria

Aracaju, Sergipe, Brazylia

Szerokość geograficzna: 10-59S, Długość geograficzna: 037-04W, wysokość: 8 m

Aktualna obserwacja pogody

Raport powstał 26 minut temu, godzina 01:00 UTC
Wiatr 8 kt od wschód
Temperatura 28°C
Wilgotność 62%
Ciśnienie 1011 hPa
Widzialność 10 km lub więcej
Brak chmur poniżej 1500 m i brak chmur cumulonimbus

METAR: SBAR 210100Z 08008KT CAVOK 28/20 Q1011

czas: 22:26 (01:26 UTC)

Prognoza

Raport powstał 3 godziny i 26 minut temu, godzina 22:00 UTC
Prognoza ważna od 21 godzina 00 UTC do 21 godzina 24 UTC
Wiatr 8 kt od wschód
Widzialność 10 km lub więcej
Rozproszone chmury na wysokości 2000 ft
Stopniowe zmiany
od 21 godzina 12 UTC do 21 godzina 14 UTC
Wiatr 13 kt od wschodnio-południowy wschód
Stopniowe zmiany
od 21 godzina 20 UTC do 21 godzina 22 UTC
Wiatr 10 kt od wschód

TAF: SBAR 202200Z 2100/2124 09008KT 9999 SCT020 TN27/2105Z TX30/2114Z BECMG 2112/2114 12013KT BECMG 2120/2122 09010KT RMK PEH

Obserwacja i prognoza pogody dla ponad 4000 lotnisk (raport METAR i TAF).

Dostępne stacje oznaczono żółtymi i czerwonymi punktami na mapie.

Najedź kursorem aby zobaczyć nazwę stacji.

Kliknij aby zobaczyć obserwacje i prognozy pogody.

Aby zmienić mapę: kliknij na zielony przycisk z czarnym krzyżykiem, aby powiększyć; na zielony przycisk z myślnikiem, aby pomniejszyć; na zielone strzałki, aby przejść do map sąsiednich.


METAR-TAF: